Time;durP1;ratioP1;P1;durP2;ratioP2;P2;SDS_P1;SDS_P2;PMS_P1;PMS_P2;Temp;Humidity;BMP_temperature;BMP_pressure;BME280_temperature;BME280_humidity;BME280_pressure;Samples;Min_cycle;Max_cycle;Signal;HPM_P1;HPM_P2
2023/01/16 00:01:57;;;;;;;2.80;2.30;;;;;;;;;;5019433;28;20250;-64
2023/01/16 00:04:24;;;;;;;2.80;2.60;;;;;;;;;;5015399;28;20735;-64
2023/01/16 00:06:51;;;;;;;4.00;2.50;;;;;;;;;;5014308;28;20257;-64
2023/01/16 00:09:19;;;;;;;4.50;3.50;;;;;;;;;;5004309;28;20245;-63
2023/01/16 00:11:46;;;;;;;9.57;4.60;;;;;;;;;;5009973;28;20221;-64
2023/01/16 00:14:14;;;;;;;6.70;2.90;;;;;;;;;;5006531;28;20218;-64
2023/01/16 00:16:41;;;;;;;3.27;2.70;;;;;;;;;;5004129;28;20281;-64
2023/01/16 00:19:08;;;;;;;4.27;2.43;;;;;;;;;;5012306;28;20324;-64
2023/01/16 00:21:36;;;;;;;5.43;2.57;;;;;;;;;;5009999;28;20322;-64
2023/01/16 00:24:03;;;;;;;4.17;2.60;;;;;;;;;;5009073;28;20329;-64
2023/01/16 00:26:31;;;;;;;4.23;2.67;;;;;;;;;;5002469;28;20731;-63
2023/01/16 00:28:58;;;;;;;3.87;2.50;;;;;;;;;;5006895;28;20206;-64
2023/01/16 00:31:26;;;;;;;3.20;2.20;;;;;;;;;;5019759;28;20231;-64
2023/01/16 00:33:54;;;;;;;2.43;2.23;;;;;;;;;;5002371;28;20246;-63
2023/01/16 00:36:21;;;;;;;2.40;2.30;;;;;;;;;;5007185;28;20694;-63
2023/01/16 00:38:48;;;;;;;2.40;2.20;;;;;;;;;;5005568;28;20569;-63
2023/01/16 00:41:16;;;;;;;5.07;2.50;;;;;;;;;;5006225;28;20262;-63
2023/01/16 00:43:43;;;;;;;2.27;2.17;;;;;;;;;;5022033;28;20230;-64
2023/01/16 00:46:11;;;;;;;2.30;2.03;;;;;;;;;;5025956;28;20227;-64
2023/01/16 00:48:38;;;;;;;3.60;2.47;;;;;;;;;;5008033;28;20370;-64
2023/01/16 00:51:05;;;;;;;3.53;2.17;;;;;;;;;;5008141;28;20332;-63
2023/01/16 00:53:33;;;;;;;3.33;2.13;;;;;;;;;;5010273;28;20848;-63
2023/01/16 00:56:00;;;;;;;1.90;1.80;;;;;;;;;;5020437;28;20266;-65
2023/01/16 00:58:27;;;;;;;2.20;1.87;;;;;;;;;;5020147;28;20227;-64
2023/01/16 01:00:55;;;;;;;2.83;1.70;;;;;;;;;;5013632;28;20268;-64
2023/01/16 01:03:22;;;;;;;2.63;2.03;;;;;;;;;;5023240;28;20202;-64
2023/01/16 01:05:49;;;;;;;3.90;2.20;;;;;;;;;;5019564;28;20223;-63
2023/01/16 01:08:17;;;;;;;5.40;1.90;;;;;;;;;;5016738;28;20370;-64
2023/01/16 01:10:44;;;;;;;2.73;1.83;;;;;;;;;;5014243;28;20531;-63
2023/01/16 01:13:11;;;;;;;3.17;2.10;;;;;;;;;;5013773;28;20211;-64
2023/01/16 01:15:39;;;;;;;2.47;2.10;;;;;;;;;;5019644;28;20266;-63
2023/01/16 01:18:06;;;;;;;2.73;1.73;;;;;;;;;;5016589;28;20208;-63
2023/01/16 01:20:34;;;;;;;5.17;2.03;;;;;;;;;;5020828;28;20226;-64
2023/01/16 01:23:02;;;;;;;5.80;2.00;;;;;;;;;;5015625;28;20254;-63
2023/01/16 01:25:29;;;;;;;3.47;1.90;;;;;;;;;;5011453;28;20227;-64
2023/01/16 01:27:57;;;;;;;2.47;2.27;;;;;;;;;;5017270;28;20214;-61
2023/01/16 01:30:24;;;;;;;3.23;2.10;;;;;;;;;;5016333;28;20288;-65
2023/01/16 01:32:52;;;;;;;2.13;1.93;;;;;;;;;;5022379;28;20294;-62
2023/01/16 01:35:20;;;;;;;6.87;2.27;;;;;;;;;;5019646;28;20246;-65
2023/01/16 01:37:47;;;;;;;2.80;1.80;;;;;;;;;;5018456;28;20743;-65
2023/01/16 01:40:14;;;;;;;2.07;1.93;;;;;;;;;;5018107;28;20255;-61
2023/01/16 01:42:42;;;;;;;2.63;1.97;;;;;;;;;;5022613;28;20353;-64
2023/01/16 01:45:17;;;;;;;2.10;1.97;;;;;;;;;;5025140;28;20222;-62
2023/01/16 01:47:49;;;;;;;6.20;2.43;;;;;;;;;;5041774;28;20261;-62
2023/01/16 01:50:27;;;;;;;2.57;2.10;;;;;;;;;;5017406;28;20265;-62
2023/01/16 01:52:57;;;;;;;2.80;1.90;;;;;;;;;;5020315;28;20299;-63
2023/01/16 01:55:25;;;;;;;2.10;1.90;;;;;;;;;;5020983;28;20260;-61
2023/01/16 01:57:56;;;;;;;2.77;1.77;;;;;;;;;;5018297;28;20819;-65
2023/01/16 02:00:25;;;;;;;1.77;1.67;;;;;;;;;;5027850;28;20311;-63
2023/01/16 02:02:58;;;;;;;3.17;1.80;;;;;;;;;;5027996;28;20243;-62
2023/01/16 02:05:28;;;;;;;3.23;1.90;;;;;;;;;;5024676;28;20250;-63
2023/01/16 02:07:55;;;;;;;1.90;1.80;;;;;;;;;;5026709;28;20260;-65
2023/01/16 02:10:32;;;;;;;1.70;1.60;;;;;;;;;;5022503;28;20238;-62
2023/01/16 02:13:00;;;;;;;2.60;1.80;;;;;;;;;;5024176;28;20297;-64
2023/01/16 02:15:28;;;;;;;2.03;1.70;;;;;;;;;;5016524;28;20285;-62
2023/01/16 02:20:44;;;;;;;7.23;1.83;;;;;;;;;;5009415;28;21258;-63
2023/01/16 02:23:33;;;;;;;2.17;1.97;;;;;;;;;;5029443;28;20250;-62
2023/01/16 02:26:00;;;;;;;5.10;2.00;;;;;;;;;;5021699;28;20869;-63
2023/01/16 02:28:31;;;;;;;2.70;2.20;;;;;;;;;;5024358;28;20242;-62
2023/01/16 02:31:07;;;;;;;2.63;2.20;;;;;;;;;;5020504;28;20207;-63
2023/01/16 02:33:49;;;;;;;5.93;1.80;;;;;;;;;;5020724;28;20238;-64
2023/01/16 02:36:46;;;;;;;1.90;1.60;;;;;;;;;;5030527;28;20254;-62
2023/01/16 02:39:26;;;;;;;3.07;1.90;;;;;;;;;;4964524;28;20702;-65
2023/01/16 02:41:59;;;;;;;1.70;1.60;;;;;;;;;;5021420;28;20656;-62
2023/01/16 02:44:50;;;;;;;2.13;1.70;;;;;;;;;;5027880;28;20215;-63
2023/01/16 02:47:17;;;;;;;2.97;1.90;;;;;;;;;;4996409;28;20207;-64
2023/01/16 02:49:52;;;;;;;4.27;2.47;;;;;;;;;;5015434;28;20708;-64
2023/01/16 02:52:22;;;;;;;6.47;2.10;;;;;;;;;;5017754;28;20239;-63
2023/01/16 02:54:53;;;;;;;1.67;1.57;;;;;;;;;;5013740;28;20222;-63
2023/01/16 02:57:22;;;;;;;2.63;1.80;;;;;;;;;;5016148;28;20691;-62
2023/01/16 02:59:50;;;;;;;2.57;2.37;;;;;;;;;;5030267;28;20257;-64
2023/01/16 03:02:18;;;;;;;4.50;3.73;;;;;;;;;;5010504;28;20222;-63
2023/01/16 03:04:45;;;;;;;3.77;2.30;;;;;;;;;;5013623;28;20297;-62
2023/01/16 03:07:22;;;;;;;4.47;3.10;;;;;;;;;;5035771;28;20253;-63
2023/01/16 03:10:08;;;;;;;8.90;4.20;;;;;;;;;;5017817;28;20720;-63
2023/01/16 03:12:47;;;;;;;2.47;1.40;;;;;;;;;;5019835;28;20608;-63
2023/01/16 03:15:22;;;;;;;2.63;2.40;;;;;;;;;;5021351;28;20657;-64
2023/01/16 03:17:49;;;;;;;3.27;2.10;;;;;;;;;;5020708;28;20305;-63
2023/01/16 03:20:25;;;;;;;3.47;2.70;;;;;;;;;;5018844;28;20250;-63
2023/01/16 03:22:59;;;;;;;1.87;1.60;;;;;;;;;;5018471;28;20288;-61
2023/01/16 03:25:36;;;;;;;3.13;1.90;;;;;;;;;;5021057;28;20276;-62
2023/01/16 03:28:11;;;;;;;1.73;1.47;;;;;;;;;;5018697;28;20210;-63
2023/01/16 03:30:52;;;;;;;3.13;1.80;;;;;;;;;;5016653;28;20238;-63
2023/01/16 03:33:22;;;;;;;3.40;2.00;;;;;;;;;;5012860;28;20218;-64
2023/01/16 03:35:54;;;;;;;2.23;1.80;;;;;;;;;;5010389;28;20754;-63
2023/01/16 03:38:22;;;;;;;2.20;1.50;;;;;;;;;;5008980;28;20243;-63
2023/01/16 03:40:51;;;;;;;2.80;1.70;;;;;;;;;;5011366;28;20282;-63
2023/01/16 03:43:21;;;;;;;3.03;1.77;;;;;;;;;;5008658;28;20202;-64
2023/01/16 03:45:54;;;;;;;4.33;1.80;;;;;;;;;;5009644;28;20625;-64
2023/01/16 03:49:02;;;;;;;3.83;1.97;;;;;;;;;;5012441;28;20198;-63
2023/01/16 03:51:34;;;;;;;2.00;1.70;;;;;;;;;;4935607;28;20213;-64
2023/01/16 03:54:12;;;;;;;2.10;1.80;;;;;;;;;;4936210;28;20236;-64
2023/01/16 03:56:39;;;;;;;2.10;1.70;;;;;;;;;;4976173;28;20712;-64
2023/01/16 03:59:07;;;;;;;2.93;1.60;;;;;;;;;;5007864;28;20747;-63
2023/01/16 04:01:39;;;;;;;1.70;1.60;;;;;;;;;;5016861;28;20199;-62
2023/01/16 04:04:24;;;;;;;4.53;1.80;;;;;;;;;;5007670;28;20308;-63
2023/01/16 04:07:12;;;;;;;1.83;1.73;;;;;;;;;;5008358;28;20334;-63
2023/01/16 04:09:49;;;;;;;1.70;1.60;;;;;;;;;;5025482;28;20234;-62
2023/01/16 04:12:20;;;;;;;2.43;1.60;;;;;;;;;;5007652;28;20214;-64
2023/01/16 04:14:50;;;;;;;3.03;1.77;;;;;;;;;;5010264;28;20215;-63
2023/01/16 04:17:17;;;;;;;3.47;1.87;;;;;;;;;;5004408;28;20213;-62
2023/01/16 04:19:45;;;;;;;3.93;1.80;;;;;;;;;;5007871;28;20313;-63
2023/01/16 04:22:20;;;;;;;1.70;1.60;;;;;;;;;;5001672;28;20207;-62
2023/01/16 04:24:49;;;;;;;2.87;1.80;;;;;;;;;;5009506;28;20734;-65
2023/01/16 04:27:17;;;;;;;1.90;1.80;;;;;;;;;;5005356;28;20243;-62
2023/01/16 04:29:45;;;;;;;1.80;1.70;;;;;;;;;;5003085;28;20221;-64
2023/01/16 04:32:12;;;;;;;1.63;1.53;;;;;;;;;;5026806;28;20208;-61
2023/01/16 04:34:39;;;;;;;2.47;2.27;;;;;;;;;;4999259;28;21506;-63
2023/01/16 04:37:07;;;;;;;2.87;1.90;;;;;;;;;;5015199;28;21231;-63
2023/01/16 04:39:34;;;;;;;2.43;1.67;;;;;;;;;;5004551;28;20227;-62
2023/01/16 04:42:01;;;;;;;4.30;2.23;;;;;;;;;;5007250;28;20237;-63
2023/01/16 04:44:29;;;;;;;2.97;2.30;;;;;;;;;;5004663;28;20423;-62
2023/01/16 04:46:58;;;;;;;3.10;2.07;;;;;;;;;;5010879;28;20214;-62
2023/01/16 04:49:26;;;;;;;2.40;2.07;;;;;;;;;;5010089;28;20257;-62
2023/01/16 04:51:53;;;;;;;2.53;2.30;;;;;;;;;;5007428;28;20219;-62
2023/01/16 04:54:21;;;;;;;8.50;3.37;;;;;;;;;;5007884;28;20290;-63
2023/01/16 04:56:48;;;;;;;5.33;2.83;;;;;;;;;;5015544;28;20242;-63
2023/01/16 04:59:18;;;;;;;2.07;1.97;;;;;;;;;;5017950;28;20321;-64
2023/01/16 05:01:45;;;;;;;2.13;1.93;;;;;;;;;;5005964;28;20607;-63
2023/01/16 05:04:14;;;;;;;2.23;1.97;;;;;;;;;;5022369;28;20688;-63
2023/01/16 05:06:42;;;;;;;5.27;2.10;;;;;;;;;;5016176;28;20292;-63
2023/01/16 05:09:09;;;;;;;4.73;2.13;;;;;;;;;;5006791;28;20598;-63
2023/01/16 05:11:37;;;;;;;2.00;1.90;;;;;;;;;;5014548;28;20246;-63
2023/01/16 05:14:07;;;;;;;4.23;2.27;;;;;;;;;;5018056;28;20624;-63
2023/01/16 05:16:35;;;;;;;3.00;2.37;;;;;;;;;;5031004;28;20325;-63
2023/01/16 05:19:03;;;;;;;3.33;2.00;;;;;;;;;;5010167;28;20579;-64
2023/01/16 05:21:31;;;;;;;2.30;2.10;;;;;;;;;;5013957;28;20233;-64
2023/01/16 05:23:59;;;;;;;2.07;1.97;;;;;;;;;;5011729;28;20206;-63
2023/01/16 05:26:26;;;;;;;3.13;2.03;;;;;;;;;;5011466;28;20234;-63
2023/01/16 05:28:53;;;;;;;3.20;2.17;;;;;;;;;;5026720;28;21565;-63
2023/01/16 05:31:22;;;;;;;4.60;2.50;;;;;;;;;;5012259;28;20332;-63
2023/01/16 05:33:49;;;;;;;2.63;2.20;;;;;;;;;;5017400;28;20242;-63
2023/01/16 05:36:17;;;;;;;3.60;3.10;;;;;;;;;;5005755;28;20278;-63
2023/01/16 05:38:46;;;;;;;2.70;2.33;;;;;;;;;;5026468;28;20738;-63
2023/01/16 05:41:13;;;;;;;5.53;2.70;;;;;;;;;;5010024;28;20223;-63
2023/01/16 05:43:40;;;;;;;4.03;2.30;;;;;;;;;;5019893;28;20235;-64
2023/01/16 05:46:08;;;;;;;3.27;2.47;;;;;;;;;;5009511;28;20892;-63
2023/01/16 05:48:36;;;;;;;3.90;2.50;;;;;;;;;;5006118;28;20211;-63
2023/01/16 05:51:04;;;;;;;2.30;2.10;;;;;;;;;;5013371;28;20214;-63
2023/01/16 05:53:31;;;;;;;2.50;2.30;;;;;;;;;;5005964;28;20226;-61
2023/01/16 05:56:00;;;;;;;7.27;3.13;;;;;;;;;;5012518;28;20407;-63
2023/01/16 05:58:28;;;;;;;3.37;2.67;;;;;;;;;;5006178;28;20249;-62
2023/01/16 06:00:55;;;;;;;4.80;3.67;;;;;;;;;;5012588;28;20304;-62
2023/01/16 06:03:23;;;;;;;5.77;3.37;;;;;;;;;;5018480;28;20298;-62
2023/01/16 06:05:50;;;;;;;5.63;3.43;;;;;;;;;;5034068;28;20281;-62
2023/01/16 06:08:17;;;;;;;11.40;7.13;;;;;;;;;;5014341;28;20342;-62
2023/01/16 06:10:45;;;;;;;7.93;5.00;;;;;;;;;;5009986;28;20768;-62
2023/01/16 06:13:12;;;;;;;4.47;3.37;;;;;;;;;;5004956;28;20210;-63
2023/01/16 06:15:39;;;;;;;4.67;3.60;;;;;;;;;;5004886;28;20254;-63
2023/01/16 06:18:07;;;;;;;4.43;4.00;;;;;;;;;;5011524;28;20334;-65
2023/01/16 06:20:34;;;;;;;3.80;2.70;;;;;;;;;;5002430;28;20328;-62
2023/01/16 06:23:02;;;;;;;3.13;2.90;;;;;;;;;;5009949;28;20285;-64
2023/01/16 06:25:29;;;;;;;2.50;2.40;;;;;;;;;;5013074;28;20242;-64
2023/01/16 06:27:57;;;;;;;6.67;3.13;;;;;;;;;;5006336;28;20261;-65
2023/01/16 06:30:24;;;;;;;5.53;3.80;;;;;;;;;;5008294;28;20214;-63
2023/01/16 06:32:53;;;;;;;6.40;4.80;;;;;;;;;;5007312;28;20242;-64
2023/01/16 06:35:21;;;;;;;5.67;3.87;;;;;;;;;;5024656;28;20240;-64
2023/01/16 06:37:48;;;;;;;4.97;4.00;;;;;;;;;;5010470;28;20233;-65
2023/01/16 06:40:18;;;;;;;4.50;3.77;;;;;;;;;;5009712;28;20336;-63
2023/01/16 06:42:47;;;;;;;3.07;2.80;;;;;;;;;;5004707;28;20896;-63
2023/01/16 06:45:14;;;;;;;4.30;2.87;;;;;;;;;;5009090;28;20291;-62
2023/01/16 06:47:44;;;;;;;6.43;2.80;;;;;;;;;;5011032;28;20283;-63
2023/01/16 06:50:11;;;;;;;6.00;4.20;;;;;;;;;;5030712;28;20233;-63
2023/01/16 06:52:39;;;;;;;8.63;6.00;;;;;;;;;;5010652;28;20214;-63
2023/01/16 06:55:07;;;;;;;6.80;4.80;;;;;;;;;;5008741;28;20291;-65
2023/01/16 07:00:10;;;;;;;6.50;3.83;;;;;;;;;;5072480;28;20227;-63
2023/01/16 07:02:39;;;;;;;4.17;3.33;;;;;;;;;;5075745;28;20618;-64
2023/01/16 07:05:09;;;;;;;3.37;2.80;;;;;;;;;;5051193;28;20228;-62
2023/01/16 07:07:36;;;;;;;2.60;2.40;;;;;;;;;;5061400;28;20200;-63
2023/01/16 07:10:04;;;;;;;5.73;2.77;;;;;;;;;;5061510;28;20227;-63
2023/01/16 07:12:32;;;;;;;5.13;3.20;;;;;;;;;;5061307;28;20662;-63
2023/01/16 07:23:20;;;;;;;4.73;3.40;;;;;;;;;;5078814;28;20207;-62
2023/01/16 07:25:50;;;;;;;7.57;3.53;;;;;;;;;;5048622;28;20220;-63
2023/01/16 07:28:18;;;;;;;4.93;2.60;;;;;;;;;;5059080;28;20303;-61
2023/01/16 07:30:46;;;;;;;5.07;3.23;;;;;;;;;;5072596;28;20211;-63
2023/01/16 07:33:13;;;;;;;2.30;2.10;;;;;;;;;;5058764;28;20619;-62
2023/01/16 07:35:40;;;;;;;2.27;2.10;;;;;;;;;;5061357;28;20315;-63
2023/01/16 07:38:08;;;;;;;2.10;2.00;;;;;;;;;;5062166;28;20301;-63
2023/01/16 07:40:35;;;;;;;2.43;2.23;;;;;;;;;;5061478;28;20258;-62
2023/01/16 07:43:03;;;;;;;2.90;2.70;;;;;;;;;;5058321;28;20232;-63
2023/01/16 07:45:30;;;;;;;3.20;2.77;;;;;;;;;;5073263;28;20248;-61
2023/01/16 07:48:00;;;;;;;4.60;2.63;;;;;;;;;;5060863;28;20231;-64
2023/01/16 07:50:27;;;;;;;5.40;2.83;;;;;;;;;;5071991;28;20295;-63
2023/01/16 07:52:55;;;;;;;6.53;4.67;;;;;;;;;;5060956;28;20236;-63
2023/01/16 07:55:23;;;;;;;8.33;4.10;;;;;;;;;;5054146;28;20255;-63
2023/01/16 07:57:50;;;;;;;6.33;3.87;;;;;;;;;;5055537;28;20246;-62
2023/01/16 08:00:18;;;;;;;5.37;4.37;;;;;;;;;;5050990;28;20232;-64
2023/01/16 08:02:46;;;;;;;6.37;4.63;;;;;;;;;;5075170;28;20200;-62
2023/01/16 08:05:13;;;;;;;4.10;3.80;;;;;;;;;;5056015;28;20312;-62
2023/01/16 08:07:42;;;;;;;2.87;2.60;;;;;;;;;;5059443;28;20197;-62
2023/01/16 08:10:09;;;;;;;2.23;2.03;;;;;;;;;;5052881;28;20299;-63
2023/01/16 08:12:38;;;;;;;1.90;1.80;;;;;;;;;;5051630;28;20209;-62
2023/01/16 08:15:05;;;;;;;2.00;1.90;;;;;;;;;;5059209;28;20241;-62
2023/01/16 08:17:33;;;;;;;2.50;2.30;;;;;;;;;;5071322;28;20213;-63
2023/01/16 08:20:01;;;;;;;2.80;2.60;;;;;;;;;;5063902;28;20316;-63
2023/01/16 08:22:29;;;;;;;3.17;2.70;;;;;;;;;;5037982;28;20282;-63
2023/01/16 08:24:56;;;;;;;3.57;2.50;;;;;;;;;;5053289;28;20263;-62
2023/01/16 08:27:25;;;;;;;5.57;3.10;;;;;;;;;;5049465;28;20248;-63
2023/01/16 08:29:52;;;;;;;2.77;2.57;;;;;;;;;;5077149;28;20255;-62
2023/01/16 08:32:19;;;;;;;3.57;3.07;;;;;;;;;;5057335;28;20290;-63
2023/01/16 08:34:47;;;;;;;1.97;1.83;;;;;;;;;;5052860;28;20213;-62
2023/01/16 08:37:15;;;;;;;2.50;2.30;;;;;;;;;;5057188;28;20239;-60
2023/01/16 08:39:43;;;;;;;3.10;2.43;;;;;;;;;;5060047;28;20212;-61
2023/01/16 08:53:17;;;;;;;3.87;2.50;;;;;;;;;;5077360;28;20576;-63
2023/01/16 08:55:44;;;;;;;4.23;2.60;;;;;;;;;;5069764;28;20321;-62
2023/01/16 08:58:12;;;;;;;1.97;1.83;;;;;;;;;;5068055;28;20815;-62
2023/01/16 09:00:39;;;;;;;1.90;1.80;;;;;;;;;;5073576;28;20263;-62
2023/01/16 09:03:06;;;;;;;2.23;2.03;;;;;;;;;;5067048;28;20216;-62
2023/01/16 09:05:33;;;;;;;2.43;2.10;;;;;;;;;;5068406;28;20631;-62
2023/01/16 09:08:01;;;;;;;1.40;1.40;;;;;;;;;;5073070;28;20241;-62
2023/01/16 09:10:29;;;;;;;1.77;1.67;;;;;;;;;;5071042;28;20585;-63
2023/01/16 09:15:45;;;;;;;1.70;1.60;;;;;;;;;;5100579;28;20232;-63
2023/01/16 09:18:12;;;;;;;2.40;2.23;;;;;;;;;;5077212;28;20213;-62
2023/01/16 09:20:40;;;;;;;2.87;2.40;;;;;;;;;;5062023;28;20307;-62
2023/01/16 09:23:07;;;;;;;3.77;3.40;;;;;;;;;;5084316;28;20247;-63
2023/01/16 09:25:35;;;;;;;3.67;3.20;;;;;;;;;;5066987;28;20262;-63
2023/01/16 09:28:03;;;;;;;2.90;2.60;;;;;;;;;;5068851;28;20202;-63
2023/01/16 09:30:30;;;;;;;4.43;3.87;;;;;;;;;;5059076;28;20224;-63
2023/01/16 09:32:58;;;;;;;2.80;2.60;;;;;;;;;;5072339;28;20963;-62
2023/01/16 09:35:25;;;;;;;2.80;2.50;;;;;;;;;;5060812;28;20251;-61
2023/01/16 09:37:52;;;;;;;4.13;3.10;;;;;;;;;;5053100;28;20208;-64
2023/01/16 09:40:21;;;;;;;2.90;2.70;;;;;;;;;;5050280;28;20562;-62
2023/01/16 09:43:38;;;;;;;2.60;2.40;;;;;;;;;;5054258;28;20727;-61
2023/01/16 09:46:08;;;;;;;2.40;2.30;;;;;;;;;;5051349;28;20212;-63
2023/01/16 09:48:39;;;;;;;3.27;2.40;;;;;;;;;;5058320;28;20307;-61
2023/01/16 09:51:10;;;;;;;2.43;2.00;;;;;;;;;;5061411;28;20240;-62
2023/01/16 09:59:28;;;;;;;1.30;1.30;;;;;;;;;;5077620;28;20657;-63
2023/01/16 10:02:03;;;;;;;2.23;1.50;;;;;;;;;;5056524;28;20733;-62
2023/01/16 10:04:31;;;;;;;1.50;1.40;;;;;;;;;;5060410;28;21012;-63
2023/01/16 10:07:08;;;;;;;2.93;2.53;;;;;;;;;;5059393;28;20240;-63
2023/01/16 10:09:35;;;;;;;2.23;1.90;;;;;;;;;;5057296;28;20306;-64
2023/01/16 10:12:05;;;;;;;1.77;1.67;;;;;;;;;;5080114;28;20270;-63
2023/01/16 10:14:32;;;;;;;1.80;1.70;;;;;;;;;;5071104;28;20691;-64
2023/01/16 10:17:20;;;;;;;1.90;1.80;;;;;;;;;;5056754;28;20229;-63
2023/01/16 10:20:06;;;;;;;2.30;2.10;;;;;;;;;;5043110;28;20318;-61
2023/01/16 10:22:46;;;;;;;3.27;2.97;;;;;;;;;;5061052;28;20278;-62
2023/01/16 10:25:14;;;;;;;3.97;2.73;;;;;;;;;;5061305;28;20252;-62
2023/01/16 10:27:41;;;;;;;5.90;3.80;;;;;;;;;;5064455;28;20287;-62
2023/01/16 10:30:08;;;;;;;3.63;3.23;;;;;;;;;;5065426;28;20267;-63
2023/01/16 10:32:44;;;;;;;6.63;3.90;;;;;;;;;;5058728;28;20254;-62
2023/01/16 10:35:17;;;;;;;5.10;3.37;;;;;;;;;;5055274;28;20224;-63
2023/01/16 10:37:47;;;;;;;5.70;3.43;;;;;;;;;;5074626;28;20213;-62
2023/01/16 10:40:20;;;;;;;7.40;4.20;;;;;;;;;;5056763;28;20237;-63
2023/01/16 10:51:13;;;;;;;1.00;1.00;;;;;;;;;;5062205;28;20216;-62
2023/01/16 10:53:40;;;;;;;1.07;1.00;;;;;;;;;;5041858;28;20300;-62
2023/01/16 10:56:08;;;;;;;1.37;1.10;;;;;;;;;;5040250;28;20489;-62
2023/01/16 10:58:36;;;;;;;2.83;1.20;;;;;;;;;;5051111;28;20225;-63
2023/01/16 11:01:04;;;;;;;0.97;0.97;;;;;;;;;;5049968;28;20223;-63
2023/01/16 11:03:41;;;;;;;0.90;0.90;;;;;;;;;;5058358;28;20691;-62
2023/01/16 11:06:12;;;;;;;1.03;1.00;;;;;;;;;;5050806;28;20325;-64
2023/01/16 11:08:41;;;;;;;1.43;1.00;;;;;;;;;;5046864;28;20215;-64
2023/01/16 11:18:27;;;;;;;1.00;1.00;;;;;;;;;;5046933;28;20466;-63
2023/01/16 11:19:41;;;;;;;1.10;1.10;;;;;;;;;;5057363;28;20303;-62
2023/01/16 11:22:21;;;;;;;2.00;1.13;;;;;;;;;;5039147;28;20355;-62
2023/01/16 11:24:49;;;;;;;1.10;1.10;;;;;;;;;;5037872;28;20240;-64
2023/01/16 11:27:20;;;;;;;1.27;1.27;;;;;;;;;;5044064;28;20232;-64
2023/01/16 11:29:52;;;;;;;1.10;1.10;;;;;;;;;;5052119;28;20193;-62
2023/01/16 11:32:24;;;;;;;1.30;1.20;;;;;;;;;;5048713;28;20208;-64
2023/01/16 11:34:54;;;;;;;1.30;1.20;;;;;;;;;;5049523;28;20290;-61
2023/01/16 11:37:22;;;;;;;1.40;1.30;;;;;;;;;;5044301;28;20321;-63
2023/01/16 11:39:51;;;;;;;2.33;1.23;;;;;;;;;;5053736;28;20962;-65
2023/01/16 11:48:02;;;;;;;1.43;1.33;;;;;;;;;;5068080;28;20205;-62
2023/01/16 11:50:32;;;;;;;1.37;1.37;;;;;;;;;;5051350;28;20296;-62
2023/01/16 11:52:59;;;;;;;1.60;1.50;;;;;;;;;;5053327;28;20239;-64
2023/01/16 11:55:33;;;;;;;1.53;1.40;;;;;;;;;;5048095;28;20264;-62
2023/01/16 11:58:20;;;;;;;1.47;1.37;;;;;;;;;;5062556;28;20216;-63
2023/01/16 12:00:47;;;;;;;1.50;1.43;;;;;;;;;;5047930;28;20293;-61
2023/01/16 12:03:23;;;;;;;1.50;1.40;;;;;;;;;;5057455;28;20242;-64
2023/01/16 12:06:03;;;;;;;1.60;1.50;;;;;;;;;;5076454;28;20222;-62
2023/01/16 12:08:45;;;;;;;1.50;1.47;;;;;;;;;;5075657;28;20622;-63
2023/01/16 12:11:21;;;;;;;2.13;1.70;;;;;;;;;;5066242;28;20273;-64
2023/01/16 12:16:56;;;;;;;1.50;1.40;;;;;;;;;;5077042;28;20237;-64
2023/01/16 12:19:38;;;;;;;1.60;1.50;;;;;;;;;;5055350;28;20246;-63
2023/01/16 12:22:24;;;;;;;1.60;1.50;;;;;;;;;;5050378;28;20297;-63
2023/01/16 12:24:55;;;;;;;1.80;1.70;;;;;;;;;;5052099;28;20691;-62
2023/01/16 12:27:43;;;;;;;1.83;1.83;;;;;;;;;;5054836;28;20221;-63
2023/01/16 12:30:17;;;;;;;1.77;1.70;;;;;;;;;;5046412;28;20212;-63
2023/01/16 12:32:59;;;;;;;1.60;1.60;;;;;;;;;;5046815;28;20274;-64
2023/01/16 12:35:29;;;;;;;3.63;1.97;;;;;;;;;;5055063;28;20828;-61
2023/01/16 12:38:16;;;;;;;1.73;1.63;;;;;;;;;;5059357;28;20209;-63
2023/01/16 12:40:46;;;;;;;3.40;2.00;;;;;;;;;;5056360;28;20205;-65
2023/01/16 12:43:26;;;;;;;1.80;1.70;;;;;;;;;;5051994;28;20237;-62
2023/01/16 12:45:56;;;;;;;2.50;2.00;;;;;;;;;;5061307;28;20311;-62
2023/01/16 12:48:42;;;;;;;1.87;1.77;;;;;;;;;;5048927;28;20201;-62
2023/01/16 12:51:12;;;;;;;1.90;1.80;;;;;;;;;;5046906;28;20663;-63
2023/01/16 12:53:49;;;;;;;1.90;1.80;;;;;;;;;;5043974;28;20236;-62
2023/01/16 12:56:20;;;;;;;1.90;1.80;;;;;;;;;;5071370;28;20315;-64
2023/01/16 12:58:50;;;;;;;1.63;1.53;;;;;;;;;;5048005;28;20218;-62
2023/01/16 13:01:19;;;;;;;2.00;1.90;;;;;;;;;;5055825;28;20257;-62
2023/01/16 13:03:46;;;;;;;1.90;1.80;;;;;;;;;;5056547;28;20290;-64
2023/01/16 13:06:16;;;;;;;1.87;1.77;;;;;;;;;;5054649;28;20220;-61
2023/01/16 13:08:49;;;;;;;2.00;1.90;;;;;;;;;;5056415;28;20840;-61
2023/01/16 13:14:10;;;;;;;1.67;1.57;;;;;;;;;;5070489;28;20339;-62
2023/01/16 13:16:44;;;;;;;1.60;1.50;;;;;;;;;;5049355;28;20252;-63
2023/01/16 13:19:16;;;;;;;1.43;1.37;;;;;;;;;;5050351;28;20291;-63
2023/01/16 13:22:04;;;;;;;1.30;1.20;;;;;;;;;;5054482;28;20228;-62
2023/01/16 13:24:33;;;;;;;1.80;1.70;;;;;;;;;;5053079;28;20201;-62
2023/01/16 13:27:05;;;;;;;1.50;1.50;;;;;;;;;;5060953;28;20230;-62
2023/01/16 13:29:45;;;;;;;1.80;1.70;;;;;;;;;;5051454;28;20220;-62
2023/01/16 13:32:15;;;;;;;1.80;1.70;;;;;;;;;;5062821;28;20201;-64
2023/01/16 13:34:50;;;;;;;2.40;1.63;;;;;;;;;;5054234;28;20205;-63
2023/01/16 13:37:27;;;;;;;2.17;1.80;;;;;;;;;;5057368;28;20201;-63
2023/01/16 13:40:13;;;;;;;2.10;2.00;;;;;;;;;;5061313;28;20305;-62
2023/01/16 13:42:47;;;;;;;1.93;1.60;;;;;;;;;;5052698;28;20789;-64
2023/01/16 13:48:11;;;;;;;2.57;1.80;;;;;;;;;;5072964;28;20767;-63
2023/01/16 13:50:39;;;;;;;1.90;1.80;;;;;;;;;;5054535;28;20731;-65
2023/01/16 13:53:09;;;;;;;1.80;1.70;;;;;;;;;;5049829;28;20245;-62
2023/01/16 13:55:40;;;;;;;2.07;1.97;;;;;;;;;;5071990;28;20230;-62
2023/01/16 13:58:08;;;;;;;2.40;2.20;;;;;;;;;;5061535;28;20209;-62
2023/01/16 14:00:37;;;;;;;1.90;1.80;;;;;;;;;;5067128;28;21340;-63
2023/01/16 14:03:23;;;;;;;2.87;2.10;;;;;;;;;;5063173;28;20240;-63
2023/01/16 14:06:09;;;;;;;1.90;1.80;;;;;;;;;;5059204;28;20217;-62
2023/01/16 14:09:07;;;;;;;2.30;1.87;;;;;;;;;;5056023;28;20654;-62
2023/01/16 14:11:35;;;;;;;2.07;1.97;;;;;;;;;;5056780;28;20674;-62
2023/01/16 14:17:08;;;;;;;2.10;2.00;;;;;;;;;;5073552;28;20626;-63
2023/01/16 14:19:54;;;;;;;2.80;2.30;;;;;;;;;;5074484;28;20305;-63
2023/01/16 14:24:55;;;;;;;2.07;1.90;;;;;;;;;;5073740;28;20200;-63
2023/01/16 14:27:24;;;;;;;2.37;2.00;;;;;;;;;;5051994;28;20250;-63
2023/01/16 14:29:54;;;;;;;1.73;1.60;;;;;;;;;;5049439;28;20331;-63
2023/01/16 14:32:29;;;;;;;1.70;1.60;;;;;;;;;;5052554;28;20780;-63
2023/01/16 14:35:02;;;;;;;1.80;1.70;;;;;;;;;;5056313;28;21595;-63
2023/01/16 14:37:38;;;;;;;1.90;1.80;;;;;;;;;;5054717;28;20881;-63
2023/01/16 14:40:09;;;;;;;1.80;1.70;;;;;;;;;;5044286;28;20235;-63
2023/01/16 14:57:12;;;;;;;2.10;2.00;;;;;;;;;;5080751;28;20217;-62
2023/01/16 15:00:00;;;;;;;2.03;1.93;;;;;;;;;;5066679;28;20681;-62
2023/01/16 15:02:33;;;;;;;3.53;1.80;;;;;;;;;;5061982;28;20262;-62
2023/01/16 15:05:51;;;;;;;2.60;2.03;;;;;;;;;;5063439;28;20224;-62
2023/01/16 15:08:20;;;;;;;2.83;2.00;;;;;;;;;;4979384;28;20211;-64
2023/01/16 15:10:50;;;;;;;2.20;2.00;;;;;;;;;;4978336;28;20285;-64
2023/01/16 15:13:23;;;;;;;2.67;2.43;;;;;;;;;;5024052;28;20244;-62
2023/01/16 15:15:54;;;;;;;1.90;1.80;;;;;;;;;;5045017;28;20303;-63
2023/01/16 15:24:15;;;;;;;1.80;1.70;;;;;;;;;;5082220;28;20208;-63
2023/01/16 15:26:56;;;;;;;1.63;1.53;;;;;;;;;;5068068;28;20251;-62
2023/01/16 15:29:30;;;;;;;1.80;1.70;;;;;;;;;;5074949;28;20507;-63
2023/01/16 15:32:01;;;;;;;1.63;1.53;;;;;;;;;;5058375;28;20209;-62
2023/01/16 15:34:29;;;;;;;2.27;1.80;;;;;;;;;;5065571;28;20341;-64
2023/01/16 15:37:00;;;;;;;1.70;1.60;;;;;;;;;;5058516;28;21513;-63
2023/01/16 15:39:37;;;;;;;1.73;1.63;;;;;;;;;;5061908;28;20208;-64
2023/01/16 15:47:39;;;;;;;1.77;1.67;;;;;;;;;;5077311;28;20250;-63
2023/01/16 15:50:07;;;;;;;1.57;1.50;;;;;;;;;;5070113;28;20236;-64
2023/01/16 15:52:41;;;;;;;1.70;1.60;;;;;;;;;;5067788;28;20211;-64
2023/01/16 15:55:21;;;;;;;2.30;2.10;;;;;;;;;;5078520;28;20683;-64
2023/01/16 15:58:01;;;;;;;2.50;2.30;;;;;;;;;;5069533;28;20212;-64
2023/01/16 16:00:31;;;;;;;2.57;2.03;;;;;;;;;;5064142;28;20212;-64
2023/01/16 16:02:59;;;;;;;2.50;2.30;;;;;;;;;;5066364;28;20266;-64
2023/01/16 16:05:27;;;;;;;2.50;2.30;;;;;;;;;;5066734;28;20270;-64
2023/01/16 16:07:55;;;;;;;1.83;1.73;;;;;;;;;;5066374;28;20716;-63
2023/01/16 16:13:18;;;;;;;2.23;1.80;;;;;;;;;;5060652;28;20235;-65
2023/01/16 16:18:54;;;;;;;2.13;2.00;;;;;;;;;;5081900;28;20205;-63
2023/01/16 16:21:22;;;;;;;2.23;2.03;;;;;;;;;;5068232;28;20277;-63
2023/01/16 16:23:54;;;;;;;2.40;2.00;;;;;;;;;;5083632;28;20252;-63
2023/01/16 16:26:22;;;;;;;2.60;2.40;;;;;;;;;;5065655;28;20311;-63
2023/01/16 16:28:49;;;;;;;3.03;2.30;;;;;;;;;;5059233;28;20235;-64
2023/01/16 16:31:17;;;;;;;4.37;2.70;;;;;;;;;;5067081;28;20666;-63
2023/01/16 16:33:52;;;;;;;2.50;2.40;;;;;;;;;;5066221;28;20211;-63
2023/01/16 16:36:20;;;;;;;3.10;2.83;;;;;;;;;;5062127;28;20233;-64
2023/01/16 16:38:52;;;;;;;3.87;3.47;;;;;;;;;;5060731;28;20212;-63
2023/01/16 16:44:25;;;;;;;3.07;2.87;;;;;;;;;;5085587;28;20611;-62
2023/01/16 16:46:56;;;;;;;4.77;4.27;;;;;;;;;;5058304;28;20255;-63
2023/01/16 16:49:23;;;;;;;4.40;4.00;;;;;;;;;;5068037;28;20233;-64